Terminal Aerodrome Forecast
Issued by NWS

Home | Current Version | Previous Version | Text Only | Print | Product List | Glossary On
Versions: 1 2 3 4 5 6 7 8 9 10 11 12 13 14
465
FTUS44 KBMX 211120
TAFEET
TAF
KEET 211120Z 2112/2212 12007KT P6SM BKN200
     FM220000 12002KT P6SM SCT150
     FM220800 13007KT P6SM SCT050 BKN150=

USA.gov is the U.S. government's official web portal to all federal, state and local government web resources and services.